Friday, May 06, 2016
22:34 UTC
  |  Log In   |  Register Free
Airport Search:

Pearson Field Airport
(KVUO)

Pearson Field Airport Diagram
No Airport Diagram Available

FAA data valid effective Mar 31 2016 - May 26 2016 (unless otherwise noted).

 
 
 
 
 
 
 
 
 
 
 
 
 
 
Current Aviation Weather for KVUO

Weather Summary


The most recent METAR observation for VUO was updated at: 12:53 UTC
METAR for KVUO is not available. Closest METAR is for KPDX
KVUO  (most recent observation was updatred at 62:15 UTC)
062153Z AUTO 34008KT 10SM CLR 26/10 A2992 RMK AO2 SLP131 T02610100

KPDX  (3.1 nm NW)   (most recent observation was updated at 62:15 UTC)
062153Z 31012KT 10SM FEW050 FEW150 27/09 A2992 RMK AO2 SLP131 T02670089

KTTD  (11.5 nm NW)   (most recent observation was updated at 62:15 UTC)
062153Z VRB05KT 10SM CLR 27/11 A2990 RMK AO2 SLP126 T02720111

TAF for KVUO is not available.
KPDX  (3.1 nm NW)   (most recent observation was updatred at 62:10 UTC)
AMD 062100Z 0621/0718 31008KT P6SM FEW250 FM062200 31010G18KT P6SM SCT250 FM070400 32012KT P6SM SCT250 FM070800 32006KT P6SM SCT250


KTTD  (11.5 nm NW)   (most recent observation was updatred at 61:73 UTC)
061733Z 0618/0718 VRB04KT P6SM BKN100 FM062100 28007KT P6SM SCT090 BKN200 FM070500 VRB03KT P6SM SCT250


KHIO  (13.3 nm NE)   (most recent observation was updatred at 61:73 UTC)
061733Z 0618/0718 36005KT P6SM FEW250 FM062200 02010G18KT P6SM FEW250 FM070300 33008KT P6SM SCT250 FM070800 VRB03KT P6SM SCT250
GlobalAir.com is loading additional information.
 Current Weather at VUO
77.0 F° (25.0 C°)

Northwest winds at 9.2 mph
Pressure:
29.94 in
Humidity:
37%
Wind:
Northwest at 9.2 mph
Dew Point:
48.9 F° (9.4 C°)
Visibility:
10.00 mi
VUO NOAA Radar




Find All Airport Services Find A Hotel Find A Rental Car Find A Golf Course Find A Restaurant $100 Hamburger



Airport Weather Forecast for KVUO

Translated METAR for KVUO (2153 UTC)
METAR:
KVUO 062153Z AUTO 34008KT 10SM CLR 26/10 A2992 RMK AO2 SLP131 T02610100
Conditions at:
KVUO (Pearson Field, WA) observed 2153 UTC 06 May 2016
Temperature:
26°C (78.8°F)
Dewpoint:
10°C (50°F) [RH = 36.5]
Pressure:
29.92 inches Hg (1013.2 mb)
pressure at sea level is 131 in Hg
Winds:
from the NNW (340 degrees) at 9.2 mph (8 knots: 4.1 m/s)
Visibility:
10 mile(s)
Ceiling:
at least 12,000 feet AGL
Clouds:
Clear below 12,000 feet AGL
Remarks:
site is un-manned
site is automated and HAS a precipitation sensor

Translated TAF for KPDX (Portland Intl, OR) (2100 UTC)
TAF text:
KPDX 062100Z 0621/0718 31008KT P6SM FEW250
Forecast period:
Friday May 06 2016 21:00 UTC - Saturday May 07 2016 18:00 UTC
Forecast type:
FROM: standard forecast or significant change
Winds:
from the NW (310 degrees) at 9.2 mph (8 knots: 4.1 m/s)
Visibility:
6 or more mile(s) (9.7+ km)
Ceiling:
at least 12,000 feet AGL
Clouds:
Few Clouds at 25,000 feet AGL
Weather:
no significant weather observed at this time
TAF text:
FM062200 31010G18KT P6SM SCT250
Forecast period:
Friday May 06 2016 22:00 UTC - Saturday May 07 2016 04:00 UTC
Forecast type:
FROM: standard forecast or significant change
Winds:
from the NW (310 degrees) at 11.5 mph (10 knots: 5.1 m/s)
gusting to 20.7 mph (18 knots: 9.3 m/s)
Visibility:
6 or more mile(s) (9.7+ km)
Ceiling:
at least 12,000 feet AGL
Clouds:
Scattered Clouds at 25,000 feet AGL
Weather:
no significant weather observed at this time
TAF text:
FM070400 32012KT P6SM SCT250
Forecast period:
Saturday May 07 2016 04:00 UTC - Saturday May 07 2016 08:00 UTC
Forecast type:
FROM: standard forecast or significant change
Winds:
from the NW (320 degrees) at 13.8 mph (12 knots: 6.2 m/s)
Visibility:
6 or more mile(s) (9.7+ km)
Ceiling:
at least 12,000 feet AGL
Clouds:
Scattered Clouds at 25,000 feet AGL
Weather:
no significant weather observed at this time
TAF text:
FM070800 32006KT P6SM SCT250
Forecast period:
Saturday May 07 2016 08:00 UTC - Saturday May 07 2016 18:00 UTC
Forecast type:
FROM: standard forecast or significant change
Winds:
from the NW (320 degrees) at 6.9 mph (6 knots: 3.1 m/s)
Visibility:
6 or more mile(s) (9.7+ km)
Ceiling:
at least 12,000 feet AGL
Clouds:
Scattered Clouds at 25,000 feet AGL
Weather:
no significant weather observed at this time
FBO's on the Field
FBO Company Facility Photos Services Transportation Aviation Fuel Prices: Prices include tax
Catering Weather Repair Courtesy Rental Type 100LL JetA JetA+ MOGAS 8087
 
Aero Maintenance Inc

This FBO has not yet been rated
FS:Epic
Last Updated: Apr-27
Login to update fuel prices
SS:
Contact Aero Maintenance IncMore FBO Information
 
Add another FBO Facility Photos Catering Weather Repair Courtesy Rental Type 100LL JetA JetA+ MOGAS 8087
Services Transportation Aviation Fuel Prices: Prices include tax


model-print
model-print
model-print
model-print